Time;durP1;ratioP1;P1;durP2;ratioP2;P2;SDS_P1;SDS_P2;PMS_P1;PMS_P2;Temp;Humidity;BMP_temperature;BMP_pressure;BME280_temperature;BME280_humidity;BME280_pressure;Samples;Min_cycle;Max_cycle;Signal;HPM_P1;HPM_P2
2024/03/03 00:00:47;;;;;;;27.67;13.25;;;;;;;4.90;100.00;95638.16;5022615;28;20049;-62
2024/03/03 00:03:14;;;;;;;24.70;12.63;;;;;;;4.88;100.00;95630.34;5022872;28;20489;-61
2024/03/03 00:05:41;;;;;;;21.40;12.10;;;;;;;4.80;100.00;95628.94;5041675;28;20041;-63
2024/03/03 00:08:07;;;;;;;24.30;13.65;;;;;;;4.81;100.00;95625.22;5027321;28;20105;-62
2024/03/03 00:10:34;;;;;;;21.33;12.75;;;;;;;4.78;100.00;95611.50;5021874;28;20053;-62
2024/03/03 00:13:00;;;;;;;22.15;13.10;;;;;;;4.71;100.00;95608.25;5029550;28;20041;-63
2024/03/03 00:15:27;;;;;;;22.83;12.30;;;;;;;4.72;100.00;95607.19;5032745;28;20080;-62
2024/03/03 00:17:54;;;;;;;25.33;13.35;;;;;;;4.76;100.00;95605.59;5024871;28;20035;-61
2024/03/03 00:20:20;;;;;;;24.20;13.00;;;;;;;4.79;100.00;95608.56;5035229;28;20056;-63
2024/03/03 00:22:47;;;;;;;22.85;12.80;;;;;;;4.85;100.00;95612.09;5021971;28;20056;-62
2024/03/03 00:25:13;;;;;;;21.63;13.20;;;;;;;4.77;100.00;95600.00;5018423;28;20056;-63
2024/03/03 00:27:40;;;;;;;26.52;14.35;;;;;;;4.53;100.00;95597.66;5021239;28;20784;-61
2024/03/03 00:30:07;;;;;;;32.25;14.15;;;;;;;4.48;100.00;95594.97;5033966;28;20056;-63
2024/03/03 00:32:33;;;;;;;27.40;14.70;;;;;;;4.49;100.00;95601.94;5041036;28;20041;-62
2024/03/03 00:35:00;;;;;;;28.60;15.05;;;;;;;4.49;100.00;95593.09;5036932;28;20040;-62
2024/03/03 00:37:26;;;;;;;30.10;15.18;;;;;;;4.38;100.00;95595.69;5026038;28;21862;-63
2024/03/03 00:39:53;;;;;;;26.33;14.57;;;;;;;4.24;100.00;95606.00;5020479;28;20398;-62
2024/03/03 00:42:20;;;;;;;27.23;15.68;;;;;;;4.23;100.00;95620.47;5030212;28;20046;-63
2024/03/03 00:44:46;;;;;;;27.00;15.15;;;;;;;4.35;100.00;95601.53;5039848;28;20053;-62
2024/03/03 00:47:13;;;;;;;30.13;15.75;;;;;;;4.49;100.00;95601.13;5034010;28;20529;-61
2024/03/03 00:49:39;;;;;;;30.67;16.17;;;;;;;4.58;100.00;95588.88;5022235;28;20467;-62
2024/03/03 00:52:06;;;;;;;25.20;14.85;;;;;;;4.49;100.00;95575.13;5017995;28;20057;-63
2024/03/03 00:54:32;;;;;;;24.80;13.77;;;;;;;4.33;100.00;95578.75;5020758;28;20048;-62
2024/03/03 00:56:59;;;;;;;27.92;14.20;;;;;;;4.39;100.00;95583.09;5037985;28;20042;-62
2024/03/03 00:59:25;;;;;;;32.88;15.65;;;;;;;4.60;100.00;95583.25;5032382;28;20049;-62
2024/03/03 01:01:52;;;;;;;36.83;17.40;;;;;;;4.57;100.00;95583.75;5035000;28;20397;-62
2024/03/03 01:04:18;;;;;;;24.88;13.52;;;;;;;4.53;100.00;95584.28;5034711;28;20033;-63
2024/03/03 01:06:45;;;;;;;25.75;15.35;;;;;;;4.58;100.00;95575.47;5031954;28;20092;-62
2024/03/03 01:09:11;;;;;;;27.70;15.25;;;;;;;4.61;100.00;95574.13;5032355;28;20045;-63
2024/03/03 01:11:38;;;;;;;29.10;15.68;;;;;;;4.64;100.00;95569.06;5044885;28;20562;-63
2024/03/03 01:14:05;;;;;;;27.42;15.30;;;;;;;4.69;100.00;95565.63;5034213;28;20116;-61
2024/03/03 01:16:32;;;;;;;31.38;15.95;;;;;;;4.59;100.00;95563.66;5024445;28;20164;-62
2024/03/03 01:18:58;;;;;;;31.63;15.50;;;;;;;4.51;100.00;95564.97;5032758;28;20045;-63
2024/03/03 01:21:26;;;;;;;29.42;15.75;;;;;;;4.56;100.00;95561.50;5033822;28;20087;-61
2024/03/03 01:23:52;;;;;;;30.75;16.17;;;;;;;4.62;100.00;95554.31;5042113;28;20049;-63
2024/03/03 01:26:19;;;;;;;33.10;16.38;;;;;;;4.61;100.00;95548.13;5040139;28;20041;-63
2024/03/03 01:28:45;;;;;;;29.40;15.05;;;;;;;4.65;100.00;95543.84;5024577;28;20045;-61
2024/03/03 01:31:12;;;;;;;31.88;16.30;;;;;;;4.55;100.00;95546.50;5024450;28;20069;-63
2024/03/03 01:33:39;;;;;;;27.45;14.85;;;;;;;4.50;100.00;95546.47;5035315;28;20057;-63
2024/03/03 01:36:06;;;;;;;29.92;15.85;;;;;;;4.42;100.00;95545.88;5036431;28;20046;-63
2024/03/03 01:38:32;;;;;;;30.25;15.45;;;;;;;4.47;100.00;95550.47;5023052;28;20099;-63
2024/03/03 01:40:59;;;;;;;29.92;15.95;;;;;;;4.54;100.00;95548.34;5025942;28;20029;-62
2024/03/03 01:43:25;;;;;;;33.80;17.45;;;;;;;4.59;100.00;95542.22;5035636;28;20525;-62
2024/03/03 01:45:52;;;;;;;31.58;16.45;;;;;;;4.40;100.00;95537.28;5029390;28;20045;-63
2024/03/03 01:48:19;;;;;;;29.90;16.00;;;;;;;4.45;100.00;95538.41;5026431;28;20045;-61
2024/03/03 01:50:47;;;;;;;33.72;17.80;;;;;;;4.52;100.00;95534.41;5026403;28;20068;-61
2024/03/03 01:53:14;;;;;;;34.53;17.77;;;;;;;4.42;100.00;95537.81;5038607;28;20041;-61
2024/03/03 01:55:42;;;;;;;29.95;16.52;;;;;;;4.16;100.00;95537.66;5030899;28;20041;-63
2024/03/03 01:58:12;;;;;;;30.52;16.00;;;;;;;4.24;100.00;95540.94;5023228;28;20140;-62
2024/03/03 02:00:39;;;;;;;33.13;16.52;;;;;;;4.25;100.00;95535.31;5023651;28;20047;-63
2024/03/03 02:03:08;;;;;;;35.30;18.67;;;;;;;4.52;100.00;95539.78;5026323;28;20038;-61
2024/03/03 02:05:36;;;;;;;39.88;17.77;;;;;;;4.57;100.00;95522.09;5024414;28;20033;-62
2024/03/03 02:08:04;;;;;;;34.92;17.40;;;;;;;4.48;100.00;95530.63;5025804;28;20037;-63
2024/03/03 02:10:32;;;;;;;32.75;17.33;;;;;;;4.49;100.00;95524.19;5031643;28;20503;-62
2024/03/03 02:12:58;;;;;;;31.80;17.20;;;;;;;4.55;100.00;95525.88;5035012;28;20037;-61
2024/03/03 02:15:26;;;;;;;35.33;17.17;;;;;;;4.31;100.00;95528.09;5052313;28;20065;-62
2024/03/03 02:17:55;;;;;;;35.38;18.25;;;;;;;4.38;100.00;95530.56;5023679;28;20047;-62
2024/03/03 02:20:23;;;;;;;34.97;18.35;;;;;;;4.19;100.00;95530.16;5037197;28;20045;-63
2024/03/03 02:22:51;;;;;;;30.95;16.23;;;;;;;4.14;100.00;95521.03;5029991;28;20037;-61
2024/03/03 02:25:18;;;;;;;35.63;17.50;;;;;;;4.14;100.00;95523.72;5030605;28;20145;-63
2024/03/03 02:27:45;;;;;;;38.30;18.42;;;;;;;4.06;100.00;95526.06;5028170;28;20041;-62
2024/03/03 02:30:12;;;;;;;32.30;17.48;;;;;;;3.88;100.00;95525.38;5023681;28;20037;-62
2024/03/03 02:32:38;;;;;;;33.05;16.75;;;;;;;3.85;100.00;95536.59;5026909;28;20048;-62
2024/03/03 02:35:05;;;;;;;37.63;18.25;;;;;;;3.84;100.00;95541.13;5030960;28;20651;-63
2024/03/03 02:37:31;;;;;;;36.03;17.77;;;;;;;3.72;100.00;95535.94;5026534;28;20052;-61
2024/03/03 02:39:58;;;;;;;34.75;19.10;;;;;;;3.58;100.00;95524.03;5022661;28;20041;-61
2024/03/03 02:42:25;;;;;;;34.27;17.80;;;;;;;3.54;100.00;95526.38;5028179;28;20049;-62
2024/03/03 02:44:52;;;;;;;39.25;19.58;;;;;;;3.46;100.00;95529.53;5026070;28;20084;-63
2024/03/03 02:47:19;;;;;;;36.85;17.90;;;;;;;3.30;100.00;95532.03;5031950;28;20048;-61
2024/03/03 02:49:45;;;;;;;34.90;18.27;;;;;;;3.18;100.00;95542.06;5039346;28;20111;-62
2024/03/03 02:52:12;;;;;;;40.25;19.52;;;;;;;3.36;100.00;95540.94;5027935;28;20044;-62
2024/03/03 02:54:38;;;;;;;43.72;20.75;;;;;;;3.62;100.00;95538.53;5019920;28;20045;-61
2024/03/03 02:57:05;;;;;;;37.13;19.45;;;;;;;3.56;100.00;95526.13;5020726;28;20048;-62
2024/03/03 02:59:33;;;;;;;36.80;17.75;;;;;;;3.43;100.00;95525.47;5031441;28;20040;-63
2024/03/03 03:02:00;;;;;;;34.15;18.65;;;;;;;3.60;100.00;95527.25;5025643;28;20044;-63
2024/03/03 03:04:27;;;;;;;43.45;17.83;;;;;;;3.69;100.00;95525.72;5036299;28;20120;-62
2024/03/03 03:06:53;;;;;;;46.42;20.60;;;;;;;3.76;100.00;95520.97;5030692;28;20041;-61
2024/03/03 03:09:21;;;;;;;42.03;22.05;;;;;;;3.80;100.00;95531.19;5029610;28;20045;-61
2024/03/03 03:11:49;;;;;;;41.13;19.67;;;;;;;3.82;100.00;95529.06;5035298;28;20072;-62
2024/03/03 03:14:15;;;;;;;45.42;22.75;;;;;;;3.77;100.00;95533.28;5025673;28;20111;-61
2024/03/03 03:16:42;;;;;;;41.53;20.38;;;;;;;3.70;100.00;95534.56;5033479;28;20068;-62
2024/03/03 03:19:09;;;;;;;44.75;21.65;;;;;;;3.72;100.00;95535.94;5017919;28;20043;-61
2024/03/03 03:21:36;;;;;;;44.65;19.15;;;;;;;3.77;100.00;95532.50;5022520;28;20045;-62
2024/03/03 03:24:03;;;;;;;41.80;20.25;;;;;;;3.89;100.00;95537.69;5037414;28;20110;-62
2024/03/03 03:26:29;;;;;;;45.72;19.98;;;;;;;3.89;100.00;95535.84;5020911;28;20669;-61
2024/03/03 03:28:56;;;;;;;38.45;19.30;;;;;;;3.86;100.00;95533.66;5028950;28;20034;-62
2024/03/03 03:31:22;;;;;;;42.13;20.55;;;;;;;3.77;100.00;95535.97;5034320;28;20041;-62
2024/03/03 03:33:49;;;;;;;38.75;19.80;;;;;;;3.60;100.00;95541.44;5033115;28;20443;-61
2024/03/03 03:36:17;;;;;;;32.22;17.98;;;;;;;3.45;100.00;95539.41;5037966;28;20049;-61
2024/03/03 03:38:44;;;;;;;41.60;19.58;;;;;;;3.31;100.00;95535.53;5022107;28;20604;-62
2024/03/03 03:41:10;;;;;;;38.42;19.67;;;;;;;3.06;100.00;95552.91;5036448;28;20067;-62
2024/03/03 03:43:37;;;;;;;38.38;18.90;;;;;;;3.07;100.00;95546.47;5019191;28;20517;-61
2024/03/03 03:46:04;;;;;;;44.40;21.13;;;;;;;3.12;100.00;95557.25;5019595;28;20096;-61
2024/03/03 03:48:30;;;;;;;45.15;21.10;;;;;;;3.19;100.00;95554.38;5028189;28;20041;-62
2024/03/03 03:50:57;;;;;;;52.97;23.48;;;;;;;3.30;100.00;95544.59;5041901;28;20041;-62
2024/03/03 03:53:23;;;;;;;44.47;20.55;;;;;;;3.25;100.00;95546.16;5039284;28;20052;-61
2024/03/03 03:55:50;;;;;;;43.95;21.98;;;;;;;3.45;100.00;95550.13;5036315;28;20591;-61
2024/03/03 03:58:16;;;;;;;40.70;21.35;;;;;;;3.18;100.00;95531.38;5016519;28;20042;-62
2024/03/03 04:00:43;;;;;;;39.45;19.60;;;;;;;3.02;100.00;95536.53;5031316;28;20033;-62
2024/03/03 04:03:10;;;;;;;42.53;21.17;;;;;;;3.03;100.00;95532.81;5035782;28;20048;-61
2024/03/03 04:05:36;;;;;;;37.95;20.15;;;;;;;2.98;100.00;95527.38;5038171;28;20042;-61
2024/03/03 04:08:03;;;;;;;43.00;19.08;;;;;;;3.04;100.00;95525.59;5028227;28;20501;-62
2024/03/03 04:10:29;;;;;;;40.08;19.10;;;;;;;3.09;100.00;95528.31;5021612;28;20053;-62
2024/03/03 04:12:56;;;;;;;49.55;21.35;;;;;;;3.07;100.00;95533.13;5034549;28;20867;-62
2024/03/03 04:15:23;;;;;;;46.33;21.10;;;;;;;3.22;100.00;95538.66;5036258;28;20045;-61
2024/03/03 04:17:49;;;;;;;40.90;21.15;;;;;;;2.99;100.00;95527.13;5029401;28;20050;-62
2024/03/03 04:20:16;;;;;;;41.88;20.05;;;;;;;2.98;100.00;95525.53;5032761;28;20049;-62
2024/03/03 04:22:42;;;;;;;40.88;19.60;;;;;;;2.87;100.00;95537.13;5034399;28;20110;-60
2024/03/03 04:25:09;;;;;;;44.25;19.58;;;;;;;2.75;100.00;95533.78;5040459;28;20536;-61
2024/03/03 04:27:38;;;;;;;42.38;19.65;;;;;;;2.89;100.00;95532.38;5018538;28;20636;-62
2024/03/03 04:30:05;;;;;;;40.17;19.40;;;;;;;3.12;100.00;95535.84;5037540;28;20488;-62
2024/03/03 04:32:32;;;;;;;41.38;19.52;;;;;;;3.09;100.00;95530.97;5021855;28;20040;-61
2024/03/03 04:35:02;;;;;;;41.30;19.00;;;;;;;2.99;100.00;95527.13;5022499;28;20052;-61
2024/03/03 04:37:30;;;;;;;38.00;18.88;;;;;;;3.03;100.00;95521.31;5026521;28;20112;-61
2024/03/03 04:39:57;;;;;;;40.45;19.73;;;;;;;2.87;100.00;95523.78;5034143;28;20041;-62
2024/03/03 04:42:24;;;;;;;44.00;20.30;;;;;;;2.88;100.00;95513.91;5027808;28;20412;-61
2024/03/03 04:44:51;;;;;;;37.50;17.52;;;;;;;2.75;100.00;95525.75;5033859;28;20041;-61
2024/03/03 04:47:17;;;;;;;40.88;18.35;;;;;;;2.70;100.00;95516.63;5021510;28;20041;-62
2024/03/03 04:49:44;;;;;;;36.58;19.20;;;;;;;2.66;100.00;95518.19;5029030;28;20044;-61
2024/03/03 04:52:10;;;;;;;37.90;19.73;;;;;;;2.56;100.00;95518.84;5032598;28;20041;-61
2024/03/03 04:54:37;;;;;;;41.47;19.70;;;;;;;2.47;100.00;95520.34;5027023;28;20041;-60
2024/03/03 04:57:04;;;;;;;40.08;19.80;;;;;;;2.27;100.00;95526.19;5021476;28;20493;-62
2024/03/03 04:59:31;;;;;;;35.97;17.92;;;;;;;2.00;100.00;95532.19;5014106;28;20045;-60
2024/03/03 05:01:57;;;;;;;48.47;19.33;;;;;;;2.07;100.00;95538.97;5025673;28;20112;-61
2024/03/03 05:04:27;;;;;;;41.30;18.88;;;;;;;2.24;100.00;95546.16;5032661;28;20493;-61
2024/03/03 05:06:53;;;;;;;45.13;20.92;;;;;;;2.30;100.00;95555.06;5026376;28;20123;-61
2024/03/03 05:09:20;;;;;;;43.05;19.80;;;;;;;2.24;100.00;95542.72;5021033;28;20038;-61
2024/03/03 05:11:47;;;;;;;40.58;19.20;;;;;;;1.95;100.00;95539.06;5030230;28;20073;-62
2024/03/03 05:14:14;;;;;;;45.03;19.17;;;;;;;1.85;100.00;95536.22;5017615;28;20748;-61
2024/03/03 05:16:41;;;;;;;46.05;21.63;;;;;;;2.01;100.00;95545.28;5011737;28;20541;-62
2024/03/03 05:19:08;;;;;;;52.42;22.90;;;;;;;2.18;100.00;95553.28;5037555;28;20040;-62
2024/03/03 05:21:35;;;;;;;54.50;23.08;;;;;;;2.26;100.00;95561.94;5034862;28;20064;-62
2024/03/03 05:24:03;;;;;;;53.33;22.58;;;;;;;2.34;100.00;95558.88;5029491;28;20464;-62
2024/03/03 05:26:30;;;;;;;56.60;24.42;;;;;;;2.36;100.00;95562.09;5020911;28;20050;-61
2024/03/03 05:28:58;;;;;;;48.97;23.20;;;;;;;2.34;100.00;95558.88;5027029;28;20167;-62
2024/03/03 05:31:32;;;;;;;49.58;22.25;;;;;;;2.34;100.00;95559.69;5021667;28;20382;-63
2024/03/03 05:34:00;;;;;;;42.38;20.33;;;;;;;2.36;100.00;95554.09;5026939;28;20552;-62
2024/03/03 05:36:26;;;;;;;48.85;23.17;;;;;;;2.37;100.00;95553.06;5034962;28;20167;-62
2024/03/03 05:38:53;;;;;;;50.13;21.85;;;;;;;2.30;100.00;95549.72;5026745;28;20046;-62
2024/03/03 05:41:24;;;;;;;42.10;20.60;;;;;;;2.34;100.00;95551.69;5027154;28;20111;-63
2024/03/03 05:43:51;;;;;;;45.55;20.33;;;;;;;2.32;100.00;95552.97;5014554;28;20048;-62
2024/03/03 05:46:17;;;;;;;39.40;20.05;;;;;;;2.24;100.00;95548.84;5024720;28;20053;-63
2024/03/03 05:48:44;;;;;;;44.03;20.45;;;;;;;2.23;100.00;95549.06;5023246;28;20049;-61
2024/03/03 05:51:10;;;;;;;49.67;22.67;;;;;;;2.14;100.00;95551.38;5020325;28;20049;-62
2024/03/03 05:53:37;;;;;;;50.00;21.88;;;;;;;2.20;100.00;95551.19;5011147;28;20440;-61
2024/03/03 05:56:05;;;;;;;41.45;19.65;;;;;;;2.16;100.00;95543.91;5019966;28;20123;-64
2024/03/03 05:58:31;;;;;;;51.83;23.35;;;;;;;2.19;100.00;95549.59;5014367;28;20733;-64
2024/03/03 06:00:58;;;;;;;50.10;22.23;;;;;;;2.27;100.00;95553.69;5023513;28;20038;-63
2024/03/03 06:03:25;;;;;;;47.15;21.77;;;;;;;2.37;100.00;95558.41;5009741;28;20560;-63
2024/03/03 06:05:51;;;;;;;53.80;22.63;;;;;;;2.62;100.00;95562.50;5022558;28;20774;-63
2024/03/03 06:08:18;;;;;;;59.40;25.63;;;;;;;2.63;100.00;95555.28;5022747;28;20041;-63
2024/03/03 06:10:44;;;;;;;47.58;21.92;;;;;;;2.52;100.00;95546.31;5016136;28;20050;-63
2024/03/03 06:13:10;;;;;;;44.97;20.58;;;;;;;2.39;100.00;95548.25;5022014;28;20115;-62
2024/03/03 06:15:38;;;;;;;44.17;20.58;;;;;;;2.40;100.00;95552.53;5018318;28;20131;-62
2024/03/03 06:18:04;;;;;;;46.22;21.98;;;;;;;2.49;100.00;95568.16;5020446;28;20583;-64
2024/03/03 06:20:31;;;;;;;47.40;22.17;;;;;;;2.44;100.00;95544.88;5023585;28;21528;-64
2024/03/03 06:22:58;;;;;;;50.70;23.27;;;;;;;2.56;100.00;95560.78;5021304;28;20049;-63
2024/03/03 06:25:24;;;;;;;54.15;23.90;;;;;;;2.72;100.00;95556.47;5029209;28;20094;-64
2024/03/03 06:27:51;;;;;;;47.67;23.13;;;;;;;2.78;100.00;95563.50;5026301;28;20049;-64
2024/03/03 06:30:17;;;;;;;48.83;22.35;;;;;;;2.75;100.00;95561.31;5031525;28;20658;-65
2024/03/03 06:32:44;;;;;;;49.38;23.98;;;;;;;2.87;100.00;95561.19;5027535;28;20057;-65
2024/03/03 06:35:11;;;;;;;51.65;23.45;;;;;;;2.99;100.00;95559.22;5027996;28;20096;-63
2024/03/03 06:37:38;;;;;;;48.15;22.45;;;;;;;3.12;100.00;95557.25;5025439;28;20053;-66
2024/03/03 06:40:06;;;;;;;47.05;21.15;;;;;;;3.17;100.00;95548.47;5029222;28;20124;-66
2024/03/03 06:42:33;;;;;;;48.90;24.13;;;;;;;3.24;100.00;95544.53;5028836;28;20559;-66
2024/03/03 06:45:00;;;;;;;45.55;22.52;;;;;;;3.31;100.00;95547.03;5024074;28;20057;-66
2024/03/03 06:47:27;;;;;;;46.22;21.67;;;;;;;3.54;100.00;95542.44;5018665;28;20039;-66
2024/03/03 06:49:56;;;;;;;51.85;22.70;;;;;;;3.73;100.00;95542.09;5027598;28;20447;-66
2024/03/03 06:52:23;;;;;;;42.97;21.45;;;;;;;3.87;100.00;95545.97;5027322;28;20075;-65
2024/03/03 06:54:50;;;;;;;50.28;22.52;;;;;;;3.94;100.00;95535.06;5022905;28;20698;-72
2024/03/03 06:57:16;;;;;;;47.50;22.67;;;;;;;4.05;100.00;95529.78;5020559;28;20524;-66
2024/03/03 06:59:43;;;;;;;48.17;22.52;;;;;;;4.25;100.00;95521.91;5035513;28;20055;-67
2024/03/03 07:02:10;;;;;;;41.38;21.90;;;;;;;4.34;100.00;95516.88;5037589;28;20052;-64
2024/03/03 07:04:36;;;;;;;41.50;20.50;;;;;;;4.39;100.00;95508.88;5022152;28;20058;-65
2024/03/03 07:07:03;;;;;;;42.00;20.58;;;;;;;4.48;100.00;95519.09;5025578;28;20049;-64
2024/03/03 07:09:30;;;;;;;44.75;20.02;;;;;;;4.61;100.00;95515.94;5016297;28;20676;-64
2024/03/03 07:11:57;;;;;;;43.47;21.98;;;;;;;4.74;100.00;95516.56;5019842;28;20125;-66
2024/03/03 07:14:25;;;;;;;42.58;21.25;;;;;;;4.84;100.00;95518.50;5026448;28;20041;-65
2024/03/03 07:16:53;;;;;;;39.92;19.10;;;;;;;4.90;100.00;95515.56;5029883;28;20056;-66
2024/03/03 07:19:19;;;;;;;36.38;20.17;;;;;;;4.97;100.00;95514.53;5021031;28;20073;-66
2024/03/03 07:21:46;;;;;;;42.13;22.17;;;;;;;5.07;100.00;95517.25;5035878;28;20132;-66
2024/03/03 07:24:13;;;;;;;34.17;20.48;;;;;;;5.02;100.00;95520.72;5018264;28;20428;-66
2024/03/03 07:26:39;;;;;;;39.47;19.95;;;;;;;5.05;100.00;95522.88;5024442;28;20050;-66
2024/03/03 07:29:07;;;;;;;38.03;19.17;;;;;;;5.16;100.00;95520.25;5031263;28;20104;-66
2024/03/03 07:31:35;;;;;;;38.83;20.27;;;;;;;5.29;100.00;95514.38;5029466;28;20119;-66
2024/03/03 07:34:03;;;;;;;41.47;20.83;;;;;;;5.42;100.00;95510.38;5026719;28;20153;-66
2024/03/03 07:36:30;;;;;;;41.38;20.42;;;;;;;5.56;100.00;95512.56;5025904;28;20077;-66
2024/03/03 07:38:56;;;;;;;42.13;21.92;;;;;;;5.63;100.00;95510.41;5035162;28;20520;-66
2024/03/03 07:41:23;;;;;;;36.55;20.63;;;;;;;5.70;100.00;95502.09;5035281;28;20428;-66
2024/03/03 07:43:49;;;;;;;39.83;18.10;;;;;;;5.73;100.00;95504.25;5030867;28;20685;-66
2024/03/03 07:46:16;;;;;;;40.15;20.60;;;;;;;5.91;100.00;95510.19;5041708;28;20045;-66
2024/03/03 07:48:44;;;;;;;35.10;18.17;;;;;;;5.93;100.00;95505.38;5034765;28;20131;-66
2024/03/03 07:51:11;;;;;;;35.08;20.15;;;;;;;5.97;100.00;95509.13;5043839;28;20581;-65
2024/03/03 07:53:38;;;;;;;41.17;20.23;;;;;;;6.10;100.00;95505.94;5035859;28;20040;-66
2024/03/03 07:56:05;;;;;;;39.90;20.35;;;;;;;6.09;100.00;95515.03;5026312;28;20433;-66
2024/03/03 07:58:36;;;;;;;37.00;19.52;;;;;;;6.05;100.00;95519.34;5022671;28;20046;-66
2024/03/03 08:01:04;;;;;;;;;;;;;;;6.13;100.00;95519.88;5037260;28;20119;-66
2024/03/03 08:03:31;;;;;;;34.85;18.10;;;;;;;6.26;100.00;95519.34;5031886;28;19935;-65
2024/03/03 08:05:57;;;;;;;35.30;18.80;;;;;;;6.40;100.00;95521.47;5043283;28;20045;-66
2024/03/03 08:08:24;;;;;;;38.75;19.70;;;;;;;6.35;100.00;95512.34;5031725;28;20057;-66
2024/03/03 08:10:51;;;;;;;35.25;19.35;;;;;;;6.43;100.00;95504.81;5022984;28;20500;-66
2024/03/03 08:13:17;;;;;;;36.08;18.73;;;;;;;6.39;100.00;95512.63;5019891;28;20037;-65
2024/03/03 08:15:44;;;;;;;37.55;19.13;;;;;;;6.35;100.00;95511.56;5016989;28;20113;-66
2024/03/03 08:18:10;;;;;;;37.25;20.05;;;;;;;6.33;100.00;95511.81;5018795;28;20084;-66
2024/03/03 08:20:37;;;;;;;39.15;20.38;;;;;;;6.48;100.00;95507.50;5021680;28;20045;-66
2024/03/03 08:23:03;;;;;;;42.97;21.50;;;;;;;6.41;100.00;95509.66;5011839;28;20049;-66
2024/03/03 08:25:30;;;;;;;42.67;21.65;;;;;;;6.43;100.00;95519.06;5016486;28;20509;-66
2024/03/03 08:28:01;;;;;;;37.20;20.27;;;;;;;6.59;100.00;95519.84;5014651;28;20053;-66
2024/03/03 08:30:28;;;;;;;39.13;20.13;;;;;;;6.66;100.00;95524.16;5010442;28;20061;-66
2024/03/03 08:32:54;;;;;;;43.50;20.40;;;;;;;6.79;100.00;95523.56;5006021;28;20045;-66
2024/03/03 08:35:21;;;;;;;41.55;19.38;;;;;;;6.90;100.00;95518.97;5012793;28;20060;-66
2024/03/03 08:37:47;;;;;;;38.25;19.45;;;;;;;6.97;100.00;95524.06;5013210;28;20053;-66
2024/03/03 08:40:17;;;;;;;40.60;21.08;;;;;;;6.98;100.00;95528.34;5005822;28;20046;-66
2024/03/03 08:42:43;;;;;;;32.20;17.42;;;;;;;7.03;100.00;95520.25;5004513;28;20045;-66
2024/03/03 08:45:10;;;;;;;36.30;18.95;;;;;;;7.10;100.00;95518.09;5006960;28;20437;-65
2024/03/03 08:47:36;;;;;;;36.13;18.38;;;;;;;6.98;100.00;95522.97;5016121;28;20052;-63
2024/03/03 08:50:04;;;;;;;33.42;18.40;;;;;;;7.10;100.00;95525.34;5021878;28;20120;-66
2024/03/03 08:52:30;;;;;;;30.80;17.00;;;;;;;7.23;100.00;95513.19;5003363;28;20069;-65
2024/03/03 08:54:57;;;;;;;30.05;16.83;;;;;;;7.33;100.00;95518.50;5009225;28;20645;-66
2024/03/03 08:57:24;;;;;;;34.20;18.70;;;;;;;7.38;100.00;95518.47;5017431;28;20041;-66
2024/03/03 08:59:51;;;;;;;37.83;18.77;;;;;;;7.55;100.00;95510.06;5010682;28;20060;-64
2024/03/03 09:02:17;;;;;;;33.63;18.83;;;;;;;7.44;100.00;95516.56;5011512;28;20116;-64
2024/03/03 09:04:44;;;;;;;35.22;20.25;;;;;;;7.42;100.00;95519.53;5001541;28;20070;-64
2024/03/03 09:07:10;;;;;;;42.28;21.95;;;;;;;7.36;100.00;95515.28;5019678;28;20052;-64
2024/03/03 09:09:37;;;;;;;39.15;22.23;;;;;;;7.31;100.00;95512.63;5017701;28;20069;-65
2024/03/03 09:12:08;;;;;;;36.65;19.35;;;;;;;7.28;100.00;95508.59;5009539;28;20033;-64
2024/03/03 09:14:35;;;;;;;33.45;18.65;;;;;;;7.31;100.00;95504.53;5019960;28;20053;-64
2024/03/03 09:17:02;;;;;;;34.92;19.05;;;;;;;7.52;100.00;95505.22;5011018;28;20041;-64
2024/03/03 09:19:28;;;;;;;33.20;19.20;;;;;;;7.62;100.00;95508.94;5024019;28;20044;-64
2024/03/03 09:21:55;;;;;;;37.05;19.85;;;;;;;7.59;100.00;95504.91;5018916;28;20504;-64
2024/03/03 09:24:24;;;;;;;62.67;32.55;;;;;;;7.64;100.00;95502.22;5015149;28;20065;-64
2024/03/03 09:26:51;;;;;;;40.03;20.55;;;;;;;7.73;100.00;95509.66;5027484;28;20049;-64
2024/03/03 09:29:18;;;;;;;79.75;43.67;;;;;;;7.84;100.00;95510.41;5016844;28;20052;-64
2024/03/03 09:31:52;;;;;;;36.78;20.48;;;;;;;8.03;100.00;95507.84;5025387;28;20072;-64
2024/03/03 09:34:18;;;;;;;37.28;19.27;;;;;;;8.14;100.00;95517.47;5020391;28;20045;-64
2024/03/03 09:36:45;;;;;;;32.97;17.95;;;;;;;8.33;100.00;95511.38;5018692;28;20386;-64
2024/03/03 09:39:11;;;;;;;33.30;17.05;;;;;;;8.32;100.00;95510.56;5024824;28;20041;-64
2024/03/03 09:41:38;;;;;;;46.60;26.20;;;;;;;8.28;100.00;95512.22;5010724;28;20045;-64
2024/03/03 09:44:10;;;;;;;33.08;19.05;;;;;;;8.23;100.00;95506.88;5024640;28;20053;-64
2024/03/03 09:46:38;;;;;;;34.17;18.13;;;;;;;8.33;100.00;95514.06;5014374;28;20033;-64
2024/03/03 09:49:09;;;;;;;38.53;19.25;;;;;;;8.39;100.00;95504.84;5025282;28;20136;-64
2024/03/03 09:51:40;;;;;;;31.73;17.97;;;;;;;8.49;100.00;95509.34;5023972;28;20045;-64
2024/03/03 09:54:09;;;;;;;32.88;19.25;;;;;;;8.47;100.00;95506.13;5018229;28;20057;-64
2024/03/03 09:56:38;;;;;;;32.53;19.23;;;;;;;8.48;100.00;95513.16;5023920;28;20048;-64
2024/03/03 09:59:04;;;;;;;34.85;19.13;;;;;;;8.38;100.00;95505.94;5011038;28;20111;-64
2024/03/03 10:01:33;;;;;;;34.28;19.00;;;;;;;8.53;100.00;95509.59;5017151;28;20044;-64
2024/03/03 10:04:01;;;;;;;32.72;18.83;;;;;;;8.54;100.00;95511.22;5022253;28;20049;-48
2024/03/03 10:06:29;;;;;;;40.08;23.20;;;;;;;8.57;100.00;95507.94;5022064;28;20138;-47
2024/03/03 10:08:59;;;;;;;36.80;19.67;;;;;;;8.70;100.00;95509.19;5022732;28;20133;-50
2024/03/03 10:11:26;;;;;;;32.88;19.08;;;;;;;8.77;100.00;95508.84;5024775;28;20049;-47
2024/03/03 10:13:53;;;;;;;30.10;16.45;;;;;;;8.73;100.00;95510.50;5023756;28;20512;-64
2024/03/03 10:16:20;;;;;;;30.33;16.48;;;;;;;8.87;100.00;95505.19;5018589;28;20129;-64
2024/03/03 10:19:03;;;;;;;34.00;17.40;;;;;;;8.89;100.00;95505.75;5019635;28;20072;-64
2024/03/03 10:21:34;;;;;;;29.23;16.67;;;;;;;8.84;100.00;95514.69;5022284;28;20059;-64
2024/03/03 10:24:22;;;;;;;28.95;15.50;;;;;;;8.86;100.00;95512.50;5018897;28;20054;-64
2024/03/03 10:26:49;;;;;;;27.05;14.25;;;;;;;8.91;100.00;95511.63;5009872;28;20464;-64
2024/03/03 10:29:20;;;;;;;26.85;15.82;;;;;;;8.86;100.00;95515.22;5026234;28;20053;-64
2024/03/03 10:31:47;;;;;;;26.70;15.33;;;;;;;8.92;100.00;95513.28;5009320;28;20049;-64
2024/03/03 10:34:18;;;;;;;27.02;14.98;;;;;;;8.98;100.00;95512.09;5029715;28;20420;-64
2024/03/03 10:36:45;;;;;;;26.77;15.27;;;;;;;9.09;100.00;95505.50;5008684;28;20111;-64
2024/03/03 10:39:12;;;;;;;28.38;14.23;;;;;;;9.29;100.00;95508.25;5021523;28;20139;-64
2024/03/03 10:41:39;;;;;;;26.05;15.00;;;;;;;9.34;100.00;95500.06;5010595;28;20057;-64
2024/03/03 10:44:09;;;;;;;26.45;14.65;;;;;;;9.41;100.00;95500.53;5015765;28;20052;-64
2024/03/03 10:46:37;;;;;;;27.38;14.25;;;;;;;9.55;100.00;95502.50;5012761;28;20042;-64
2024/03/03 10:49:04;;;;;;;26.80;14.68;;;;;;;9.70;100.00;95496.84;5022840;28;20519;-64
2024/03/03 10:51:30;;;;;;;24.80;14.70;;;;;;;9.91;100.00;95495.78;5021987;28;20091;-64
2024/03/03 10:53:59;;;;;;;25.63;14.93;;;;;;;9.93;100.00;95498.97;5020739;28;20033;-64
2024/03/03 10:56:26;;;;;;;26.08;14.85;;;;;;;9.95;100.00;95497.56;5022874;28;20830;-64
2024/03/03 10:58:54;;;;;;;24.55;13.98;;;;;;;10.16;100.00;95505.38;5021496;28;20042;-64
2024/03/03 11:01:21;;;;;;;23.92;13.45;;;;;;;10.24;100.00;95491.19;5017854;28;20064;-64
2024/03/03 11:03:50;;;;;;;23.10;13.55;;;;;;;10.35;100.00;95488.28;5017853;28;20052;-64
2024/03/03 11:06:16;;;;;;;26.88;14.40;;;;;;;10.47;100.00;95487.84;5020995;28;20124;-65
2024/03/03 11:08:49;;;;;;;26.55;14.60;;;;;;;10.61;100.00;95482.47;5025859;28;20571;-64
2024/03/03 11:11:21;;;;;;;25.67;14.68;;;;;;;10.78;100.00;95479.16;5020652;28;20052;-64
2024/03/03 11:14:03;;;;;;;20.35;13.50;;;;;;;10.80;100.00;95483.19;5019061;28;20710;-64
2024/03/03 11:16:30;;;;;;;24.95;13.23;;;;;;;11.10;100.00;95474.78;5018957;28;20065;-64